ADDS METAR Data INFO
IDs: Format: Raw Decoded Include TAF

Data at: 1203 UTC 21 Jun 2018

KSAT 211151Z 06006KT 10SM BKN008 BKN023 OVC250 23/21 A2991 RMK AO2 SLP112 T02280211 10233 20228 53016